Time;durP1;ratioP1;P1;durP2;ratioP2;P2;SDS_P1;SDS_P2;PMS_P1;PMS_P2;Temp;Humidity;BMP_temperature;BMP_pressure;BME280_temperature;BME280_humidity;BME280_pressure;Samples;Min_cycle;Max_cycle;Signal;HPM_P1;HPM_P2
2024/02/04 00:00:10;;;;;;;23.63;13.55;;;;;;;;;;4920666;29;20086;-70
2024/02/04 00:02:40;;;;;;;20.65;13.52;;;;;;;;;;4921234;29;20048;-70
2024/02/04 00:05:06;;;;;;;25.70;11.82;;;;;;;;;;4924446;29;20507;-70
2024/02/04 00:07:32;;;;;;;15.25;7.65;;;;;;;;;;4922666;29;20056;-70
2024/02/04 00:09:58;;;;;;;18.90;12.05;;;;;;;;;;4925037;29;20050;-70
2024/02/04 00:12:24;;;;;;;16.50;11.55;;;;;;;;;;4922641;29;20039;-70
2024/02/04 00:14:50;;;;;;;14.02;9.82;;;;;;;;;;4922260;29;20044;-70
2024/02/04 00:17:17;;;;;;;13.80;7.53;;;;;;;;;;4923567;29;20110;-70
2024/02/04 00:19:43;;;;;;;23.80;10.85;;;;;;;;;;4920621;29;20036;-70
2024/02/04 00:22:09;;;;;;;22.40;12.20;;;;;;;;;;4924867;29;20032;-69
2024/02/04 00:24:35;;;;;;;21.67;12.73;;;;;;;;;;4924071;29;20031;-70
2024/02/04 00:27:00;;;;;;;16.52;11.63;;;;;;;;;;4919941;29;20762;-70
2024/02/04 00:32:12;;;;;;;21.95;12.07;;;;;;;;;;4923404;29;20201;-70
2024/02/04 00:34:38;;;;;;;18.17;10.38;;;;;;;;;;4921643;29;20044;-69
2024/02/04 00:40:26;;;;;;;12.68;9.50;;;;;;;;;;4914105;29;20126;-69
2024/02/04 00:42:52;;;;;;;18.45;12.18;;;;;;;;;;4926293;29;20040;-70
2024/02/04 00:45:18;;;;;;;17.98;9.25;;;;;;;;;;4921712;29;20056;-69
2024/02/04 00:47:44;;;;;;;16.48;11.75;;;;;;;;;;4920654;29;20083;-69
2024/02/04 00:50:10;;;;;;;12.07;7.82;;;;;;;;;;4925717;29;20031;-68
2024/02/04 00:52:36;;;;;;;16.35;9.25;;;;;;;;;;4923566;29;20044;-70
2024/02/04 00:55:02;;;;;;;17.00;12.07;;;;;;;;;;4925419;29;20498;-69
2024/02/04 00:57:29;;;;;;;18.27;10.50;;;;;;;;;;4920898;29;20064;-70
2024/02/04 00:59:55;;;;;;;17.98;10.70;;;;;;;;;;4923813;29;20134;-70
2024/02/04 01:02:20;;;;;;;18.65;11.02;;;;;;;;;;4923979;29;20035;-69
2024/02/04 01:04:48;;;;;;;23.05;13.10;;;;;;;;;;4924221;29;20496;-68
2024/02/04 01:07:14;;;;;;;9.95;7.70;;;;;;;;;;4927510;29;20082;-69
2024/02/04 01:09:40;;;;;;;11.07;8.52;;;;;;;;;;4942950;29;20075;-69
2024/02/04 01:12:06;;;;;;;14.02;10.38;;;;;;;;;;4930098;29;20033;-70
2024/02/04 01:17:16;;;;;;;11.77;8.77;;;;;;;;;;4923621;29;20114;-70
2024/02/04 01:19:42;;;;;;;21.15;10.77;;;;;;;;;;4920122;29;20036;-69
2024/02/04 01:22:08;;;;;;;18.65;10.77;;;;;;;;;;4917624;29;20035;-70
2024/02/04 01:24:34;;;;;;;13.45;8.80;;;;;;;;;;4926994;29;20043;-69
2024/02/04 01:27:00;;;;;;;21.98;12.30;;;;;;;;;;4919598;29;20632;-69
2024/02/04 01:29:25;;;;;;;20.05;10.38;;;;;;;;;;4927510;29;20130;-69
2024/02/04 01:31:51;;;;;;;15.95;9.90;;;;;;;;;;4922099;29;20507;-68
2024/02/04 01:34:17;;;;;;;12.75;9.75;;;;;;;;;;4921817;29;20166;-69
2024/02/04 01:36:43;;;;;;;12.88;7.47;;;;;;;;;;4922407;29;20067;-69
2024/02/04 01:39:10;;;;;;;12.50;9.82;;;;;;;;;;4934980;29;20094;-70
2024/02/04 01:41:36;;;;;;;16.10;10.40;;;;;;;;;;4927150;29;20048;-70
2024/02/04 01:44:02;;;;;;;15.82;10.50;;;;;;;;;;4923153;29;20036;-70
2024/02/04 01:46:28;;;;;;;12.70;10.07;;;;;;;;;;4921394;29;20048;-69
2024/02/04 01:48:55;;;;;;;9.77;8.77;;;;;;;;;;4924066;29;20047;-70
2024/02/04 01:51:21;;;;;;;10.95;7.78;;;;;;;;;;4920731;29;20043;-70
2024/02/04 01:53:48;;;;;;;12.85;9.50;;;;;;;;;;4919487;29;20047;-70
2024/02/04 01:56:14;;;;;;;10.73;9.50;;;;;;;;;;4922573;29;20524;-70
2024/02/04 01:58:39;;;;;;;12.95;7.78;;;;;;;;;;4903874;29;20040;-70
2024/02/04 02:01:25;;;;;;;11.90;10.23;;;;;;;;;;4926412;29;20055;-70
2024/02/04 02:03:51;;;;;;;11.65;9.32;;;;;;;;;;4923957;29;20037;-69
2024/02/04 02:06:17;;;;;;;20.38;13.57;;;;;;;;;;4921768;29;20047;-69
2024/02/04 02:08:43;;;;;;;11.68;8.88;;;;;;;;;;4922134;29;20036;-70
2024/02/04 02:11:11;;;;;;;8.68;7.80;;;;;;;;;;4905406;29;20035;-69
2024/02/04 02:13:37;;;;;;;7.50;6.22;;;;;;;;;;4927313;29;20036;-70
2024/02/04 02:16:06;;;;;;;12.20;7.93;;;;;;;;;;4920676;29;20076;-69
2024/02/04 02:18:37;;;;;;;10.02;8.45;;;;;;;;;;4924931;29;20050;-69
2024/02/04 02:21:25;;;;;;;7.70;6.65;;;;;;;;;;4902438;29;20051;-70
2024/02/04 02:24:07;;;;;;;7.78;6.97;;;;;;;;;;4910737;29;20776;-69
2024/02/04 02:26:33;;;;;;;6.60;5.93;;;;;;;;;;4920006;29;20123;-69
2024/02/04 02:28:59;;;;;;;11.43;7.70;;;;;;;;;;4923928;29;20535;-69
2024/02/04 02:31:25;;;;;;;8.05;6.55;;;;;;;;;;4919642;29;20034;-69
2024/02/04 02:33:51;;;;;;;7.03;6.32;;;;;;;;;;4921273;29;20036;-69
2024/02/04 02:36:17;;;;;;;7.13;6.43;;;;;;;;;;4922735;29;20523;-70
2024/02/04 02:38:46;;;;;;;4.85;4.38;;;;;;;;;;4921969;29;20043;-69
2024/02/04 02:41:31;;;;;;;7.63;6.70;;;;;;;;;;4917961;29;20039;-69
2024/02/04 02:43:57;;;;;;;6.28;5.68;;;;;;;;;;4924710;29;20091;-69
2024/02/04 02:46:23;;;;;;;6.70;6.00;;;;;;;;;;4921060;29;20047;-69
2024/02/04 02:48:49;;;;;;;8.10;7.28;;;;;;;;;;4920793;29;20115;-68
2024/02/04 02:51:16;;;;;;;7.05;6.32;;;;;;;;;;4921141;29;20044;-69
2024/02/04 02:53:41;;;;;;;10.07;6.80;;;;;;;;;;4923209;29;20399;-69
2024/02/04 02:56:07;;;;;;;7.78;6.50;;;;;;;;;;4919149;29;20083;-67
2024/02/04 02:58:33;;;;;;;12.88;7.88;;;;;;;;;;4921681;29;20499;-68
2024/02/04 03:00:59;;;;;;;15.63;9.23;;;;;;;;;;4929322;29;20126;-68
2024/02/04 03:03:25;;;;;;;14.80;8.93;;;;;;;;;;4926678;29;20122;-68
2024/02/04 03:05:51;;;;;;;14.43;8.40;;;;;;;;;;4926345;29;20596;-67
2024/02/04 03:08:17;;;;;;;13.13;8.00;;;;;;;;;;4927554;29;20040;-70
2024/02/04 03:10:43;;;;;;;12.05;8.27;;;;;;;;;;4922734;29;20095;-68
2024/02/04 03:13:09;;;;;;;21.00;10.95;;;;;;;;;;4930785;29;20032;-68
2024/02/04 03:15:34;;;;;;;15.63;9.95;;;;;;;;;;4924804;29;20600;-70
2024/02/04 03:18:01;;;;;;;10.05;7.10;;;;;;;;;;4925278;29;20610;-68
2024/02/04 03:20:27;;;;;;;17.02;10.15;;;;;;;;;;4923356;29;20032;-69
2024/02/04 03:22:53;;;;;;;13.10;8.38;;;;;;;;;;4922507;29;20187;-68
2024/02/04 03:25:20;;;;;;;17.77;8.95;;;;;;;;;;4930301;29;20035;-68
2024/02/04 03:27:46;;;;;;;12.18;8.65;;;;;;;;;;4936564;29;20511;-68
2024/02/04 03:30:12;;;;;;;8.65;6.75;;;;;;;;;;4923155;29;20032;-68
2024/02/04 03:32:38;;;;;;;8.32;5.97;;;;;;;;;;4939825;29;20481;-68
2024/02/04 03:35:04;;;;;;;3.95;3.28;;;;;;;;;;4921092;29;20031;-69
2024/02/04 03:37:31;;;;;;;4.38;3.88;;;;;;;;;;4941726;29;20415;-69
2024/02/04 03:39:57;;;;;;;6.70;4.70;;;;;;;;;;4919041;29;20028;-68
2024/02/04 03:42:24;;;;;;;4.00;3.70;;;;;;;;;;4924241;29;20035;-69
2024/02/04 03:44:50;;;;;;;2.60;2.50;;;;;;;;;;4924050;29;20507;-68
2024/02/04 03:47:16;;;;;;;3.10;2.90;;;;;;;;;;4925919;29;20051;-69
2024/02/04 03:49:42;;;;;;;2.25;2.15;;;;;;;;;;4926541;29;20044;-69
2024/02/04 03:52:26;;;;;;;3.25;3.05;;;;;;;;;;4922259;29;20490;-69
2024/02/04 03:54:53;;;;;;;2.92;2.72;;;;;;;;;;4923777;29;20645;-69
2024/02/04 03:57:18;;;;;;;3.50;3.08;;;;;;;;;;4925275;29;20039;-70
2024/02/04 03:59:45;;;;;;;2.15;2.05;;;;;;;;;;4923014;29;20127;-70
2024/02/04 04:02:11;;;;;;;2.97;2.65;;;;;;;;;;4933198;29;20039;-69
2024/02/04 04:04:39;;;;;;;3.25;3.05;;;;;;;;;;4941790;29;20111;-69
2024/02/04 04:07:05;;;;;;;3.50;3.30;;;;;;;;;;4922844;29;20074;-70
2024/02/04 04:09:31;;;;;;;3.80;3.60;;;;;;;;;;4938979;29;20105;-71
2024/02/04 04:11:57;;;;;;;2.40;2.30;;;;;;;;;;4917631;29;20684;-70
2024/02/04 04:14:22;;;;;;;3.30;3.10;;;;;;;;;;4929024;29;20035;-70
2024/02/04 04:16:48;;;;;;;2.42;2.33;;;;;;;;;;4926069;29;20060;-71
2024/02/04 04:19:14;;;;;;;2.40;2.30;;;;;;;;;;4922251;29;20070;-70
2024/02/04 04:21:40;;;;;;;2.50;2.40;;;;;;;;;;4937747;29;20592;-70
2024/02/04 04:24:06;;;;;;;3.20;3.00;;;;;;;;;;4925298;29;20475;-70
2024/02/04 04:26:33;;;;;;;2.05;1.95;;;;;;;;;;4922850;29;20276;-70
2024/02/04 04:28:59;;;;;;;3.55;2.30;;;;;;;;;;4922511;29;20123;-70
2024/02/04 04:31:25;;;;;;;2.42;2.33;;;;;;;;;;4928179;29;20574;-70
2024/02/04 04:36:35;;;;;;;2.60;2.50;;;;;;;;;;4928038;29;20032;-70
2024/02/04 04:39:01;;;;;;;2.15;2.05;;;;;;;;;;4925368;29;20640;-70
2024/02/04 04:41:27;;;;;;;2.72;1.98;;;;;;;;;;4928022;29;20043;-70
2024/02/04 04:43:52;;;;;;;2.17;2.08;;;;;;;;;;4922660;29;20120;-69
2024/02/04 04:46:19;;;;;;;2.50;1.70;;;;;;;;;;4924219;29;20519;-70
2024/02/04 04:48:45;;;;;;;2.08;1.98;;;;;;;;;;4925027;29;20032;-70
2024/02/04 04:51:11;;;;;;;1.52;1.52;;;;;;;;;;4925261;29;20050;-70
2024/02/04 04:53:37;;;;;;;1.48;1.48;;;;;;;;;;4920835;29;20083;-70
2024/02/04 04:56:04;;;;;;;2.15;2.05;;;;;;;;;;4923799;29;20040;-71
2024/02/04 04:58:30;;;;;;;1.88;1.80;;;;;;;;;;4921004;29;20071;-70
2024/02/04 05:00:55;;;;;;;1.58;1.58;;;;;;;;;;4924815;29;20048;-69
2024/02/04 05:03:21;;;;;;;2.00;1.90;;;;;;;;;;4919174;29;20084;-71
2024/02/04 05:05:47;;;;;;;2.00;1.90;;;;;;;;;;4917271;29;20036;-70
2024/02/04 05:08:14;;;;;;;1.55;1.45;;;;;;;;;;4923471;29;20044;-69
2024/02/04 05:10:39;;;;;;;1.90;1.80;;;;;;;;;;4921170;29;20554;-69
2024/02/04 05:13:05;;;;;;;2.38;2.17;;;;;;;;;;4924694;29;20122;-72
2024/02/04 05:15:31;;;;;;;1.90;1.85;;;;;;;;;;4918827;29;20079;-71
2024/02/04 05:17:57;;;;;;;1.95;1.88;;;;;;;;;;4925298;29;20550;-72
2024/02/04 05:20:22;;;;;;;1.73;1.63;;;;;;;;;;4922416;29;20128;-73
2024/02/04 05:22:48;;;;;;;1.63;1.63;;;;;;;;;;4920792;29;20036;-73
2024/02/04 05:25:14;;;;;;;1.77;1.67;;;;;;;;;;4923893;29;20443;-74
2024/02/04 05:30:24;;;;;;;1.58;1.48;;;;;;;;;;4921614;29;20074;-75
2024/02/04 05:32:50;;;;;;;1.23;1.23;;;;;;;;;;4913652;29;20063;-72
2024/02/04 05:35:16;;;;;;;1.25;1.25;;;;;;;;;;4922646;29;20034;-72
2024/02/04 05:37:42;;;;;;;2.00;1.90;;;;;;;;;;4929129;29;20122;-71
2024/02/04 05:40:08;;;;;;;1.63;1.52;;;;;;;;;;4924206;29;20028;-72
2024/02/04 05:42:35;;;;;;;1.85;1.70;;;;;;;;;;4923031;29;20117;-72
2024/02/04 05:45:00;;;;;;;1.45;1.42;;;;;;;;;;4915334;29;20032;-72
2024/02/04 05:47:26;;;;;;;1.10;1.10;;;;;;;;;;4927334;29;20537;-73
2024/02/04 05:49:52;;;;;;;1.05;1.05;;;;;;;;;;4927612;29;20035;-71
2024/02/04 05:52:18;;;;;;;1.52;1.52;;;;;;;;;;4927299;29;20561;-72
2024/02/04 05:54:44;;;;;;;1.10;1.10;;;;;;;;;;4935946;29;20094;-72
2024/02/04 05:57:11;;;;;;;1.60;1.50;;;;;;;;;;4926909;29;20038;-73
2024/02/04 05:59:38;;;;;;;1.35;1.30;;;;;;;;;;4925333;29;20036;-74
2024/02/04 06:02:04;;;;;;;1.30;1.20;;;;;;;;;;4928141;29;20039;-72
2024/02/04 06:04:30;;;;;;;1.52;1.52;;;;;;;;;;4930461;29;20118;-71
2024/02/04 06:06:56;;;;;;;1.10;1.10;;;;;;;;;;4926000;29;20130;-73
2024/02/04 06:09:21;;;;;;;1.15;1.15;;;;;;;;;;4907285;29;20036;-72
2024/02/04 06:11:47;;;;;;;1.48;1.48;;;;;;;;;;4921294;29;20543;-73
2024/02/04 06:14:13;;;;;;;1.25;1.05;;;;;;;;;;4922711;29;20115;-73
2024/02/04 06:16:39;;;;;;;1.15;1.15;;;;;;;;;;4926089;29;20134;-72
2024/02/04 06:19:05;;;;;;;1.45;1.38;;;;;;;;;;4907407;29;20564;-73
2024/02/04 06:21:31;;;;;;;1.48;1.48;;;;;;;;;;4924301;29;20043;-73
2024/02/04 06:23:57;;;;;;;1.30;1.30;;;;;;;;;;4924957;29;20044;-72
2024/02/04 06:26:22;;;;;;;1.48;1.42;;;;;;;;;;4927114;29;20035;-72
2024/02/04 06:28:50;;;;;;;1.50;1.48;;;;;;;;;;4935607;29;20035;-72
2024/02/04 06:31:16;;;;;;;1.40;1.40;;;;;;;;;;4925446;29;20057;-72
2024/02/04 06:33:42;;;;;;;1.75;1.42;;;;;;;;;;4924493;29;20506;-72
2024/02/04 06:36:08;;;;;;;1.20;1.20;;;;;;;;;;4914636;29;20097;-73
2024/02/04 06:38:34;;;;;;;1.20;1.20;;;;;;;;;;4929402;29;20035;-72
2024/02/04 06:41:00;;;;;;;1.40;1.40;;;;;;;;;;4929734;29;20040;-71
2024/02/04 06:43:25;;;;;;;1.35;1.13;;;;;;;;;;4925650;29;20039;-72
2024/02/04 06:45:51;;;;;;;1.40;1.30;;;;;;;;;;4929423;29;20042;-73
2024/02/04 06:48:19;;;;;;;1.52;1.52;;;;;;;;;;4931958;29;20048;-70
2024/02/04 06:50:45;;;;;;;1.30;1.30;;;;;;;;;;4925776;29;20092;-71
2024/02/04 06:53:11;;;;;;;1.45;1.40;;;;;;;;;;4935660;29;20040;-71
2024/02/04 06:55:37;;;;;;;1.27;1.27;;;;;;;;;;4915057;29;20036;-70
2024/02/04 06:58:03;;;;;;;1.20;1.20;;;;;;;;;;4939944;29;20071;-71
2024/02/04 07:00:29;;;;;;;1.20;1.20;;;;;;;;;;4921850;29;20028;-71
2024/02/04 07:02:54;;;;;;;1.50;1.15;;;;;;;;;;4947194;29;20039;-70
2024/02/04 07:05:21;;;;;;;0.98;0.98;;;;;;;;;;4933274;29;20040;-71
2024/02/04 07:07:48;;;;;;;1.00;1.00;;;;;;;;;;4942897;29;20138;-71
2024/02/04 07:10:14;;;;;;;1.08;1.08;;;;;;;;;;4932085;29;20023;-71
2024/02/04 07:12:40;;;;;;;0.98;0.98;;;;;;;;;;4931764;29;20541;-71
2024/02/04 07:15:06;;;;;;;1.25;1.23;;;;;;;;;;4932719;29;20337;-71
2024/02/04 07:17:31;;;;;;;1.45;1.45;;;;;;;;;;4931765;29;20138;-70
2024/02/04 07:19:57;;;;;;;2.97;1.13;;;;;;;;;;4932135;29;20043;-70
2024/02/04 07:22:23;;;;;;;2.22;1.20;;;;;;;;;;4933530;29;20592;-71
2024/02/04 07:24:49;;;;;;;1.15;1.13;;;;;;;;;;4932286;29;20126;-71
2024/02/04 07:27:15;;;;;;;1.20;1.20;;;;;;;;;;4940911;29;20070;-71
2024/02/04 07:29:40;;;;;;;1.30;1.30;;;;;;;;;;4952490;28;20549;-71
2024/02/04 07:32:06;;;;;;;1.05;1.05;;;;;;;;;;4950894;29;20458;-71
2024/02/04 07:34:32;;;;;;;1.20;1.20;;;;;;;;;;4938342;29;20036;-69
2024/02/04 07:36:58;;;;;;;1.23;1.20;;;;;;;;;;4916193;29;20510;-71
2024/02/04 07:39:24;;;;;;;1.58;1.50;;;;;;;;;;4931883;29;20039;-71
2024/02/04 07:41:50;;;;;;;1.20;1.20;;;;;;;;;;4931931;29;20036;-70
2024/02/04 07:44:15;;;;;;;1.20;1.20;;;;;;;;;;4933175;29;20074;-71
2024/02/04 07:46:41;;;;;;;1.40;1.40;;;;;;;;;;4932039;29;20074;-71
2024/02/04 07:49:07;;;;;;;1.05;1.05;;;;;;;;;;4925247;29;20562;-70
2024/02/04 07:51:35;;;;;;;1.55;1.45;;;;;;;;;;4947673;29;20036;-69
2024/02/04 07:54:01;;;;;;;1.27;1.27;;;;;;;;;;4945299;28;20031;-70
2024/02/04 07:56:27;;;;;;;3.05;1.30;;;;;;;;;;4931680;29;20039;-71
2024/02/04 07:58:54;;;;;;;1.73;1.63;;;;;;;;;;4930956;29;20105;-73
2024/02/04 08:01:20;;;;;;;1.17;1.17;;;;;;;;;;4947552;29;20048;-71
2024/02/04 08:03:47;;;;;;;1.17;1.15;;;;;;;;;;4912311;29;20031;-72
2024/02/04 08:06:13;;;;;;;1.20;1.20;;;;;;;;;;4929155;29;20071;-71
2024/02/04 08:08:39;;;;;;;1.20;1.10;;;;;;;;;;4944610;29;20130;-71
2024/02/04 08:11:05;;;;;;;1.13;1.13;;;;;;;;;;4925154;29;20703;-71
2024/02/04 08:13:31;;;;;;;1.58;1.40;;;;;;;;;;4914007;29;20123;-71
2024/02/04 08:15:56;;;;;;;1.48;1.45;;;;;;;;;;4922999;29;20059;-70
2024/02/04 08:18:22;;;;;;;1.60;1.50;;;;;;;;;;4932031;29;20587;-71
2024/02/04 08:20:49;;;;;;;1.27;1.27;;;;;;;;;;4932221;29;20031;-70
2024/02/04 08:23:15;;;;;;;1.52;1.48;;;;;;;;;;4934078;29;20072;-70
2024/02/04 08:25:41;;;;;;;2.50;1.60;;;;;;;;;;4928550;29;20068;-71
2024/02/04 08:28:07;;;;;;;1.10;1.02;;;;;;;;;;4931281;29;20136;-71
2024/02/04 08:30:33;;;;;;;1.02;1.02;;;;;;;;;;4932414;29;20039;-71
2024/02/04 08:32:59;;;;;;;1.98;1.33;;;;;;;;;;4933081;29;20160;-70
2024/02/04 08:35:25;;;;;;;0.98;0.98;;;;;;;;;;4914671;29;20173;-71
2024/02/04 08:37:51;;;;;;;1.20;1.20;;;;;;;;;;4913731;29;20687;-71
2024/02/04 08:40:16;;;;;;;1.00;1.00;;;;;;;;;;4912435;29;20039;-71
2024/02/04 08:42:44;;;;;;;1.48;1.38;;;;;;;;;;4913319;29;20415;-69
2024/02/04 08:45:10;;;;;;;1.23;1.23;;;;;;;;;;4913563;29;20028;-69
2024/02/04 08:47:36;;;;;;;1.33;1.33;;;;;;;;;;4913117;29;20157;-69
2024/02/04 08:50:02;;;;;;;2.03;1.67;;;;;;;;;;4925971;29;20062;-69
2024/02/04 08:52:29;;;;;;;1.60;1.50;;;;;;;;;;4928468;29;20036;-69
2024/02/04 08:54:55;;;;;;;1.05;1.02;;;;;;;;;;4928623;29;20106;-69
2024/02/04 08:57:21;;;;;;;2.05;1.50;;;;;;;;;;4923716;29;20036;-70
2024/02/04 08:59:47;;;;;;;1.38;1.27;;;;;;;;;;4922484;29;20567;-69
2024/02/04 09:02:13;;;;;;;1.27;1.20;;;;;;;;;;4922574;29;20421;-69
2024/02/04 09:04:40;;;;;;;1.50;1.40;;;;;;;;;;4937370;29;20142;-70
2024/02/04 09:07:07;;;;;;;1.40;1.40;;;;;;;;;;4922334;29;20411;-70
2024/02/04 09:09:33;;;;;;;1.80;1.70;;;;;;;;;;4921124;29;20040;-72
2024/02/04 09:11:58;;;;;;;1.95;1.85;;;;;;;;;;4921487;29;20040;-72
2024/02/04 09:14:24;;;;;;;3.10;1.65;;;;;;;;;;4937469;29;20043;-71
2024/02/04 09:16:50;;;;;;;2.35;2.13;;;;;;;;;;4903026;29;20059;-72
2024/02/04 09:19:16;;;;;;;2.88;2.33;;;;;;;;;;4896347;29;20461;-71
2024/02/04 09:21:42;;;;;;;2.03;1.75;;;;;;;;;;4911641;29;20392;-71
2024/02/04 09:24:08;;;;;;;2.22;2.05;;;;;;;;;;4912793;29;20505;-71
2024/02/04 09:26:33;;;;;;;2.70;2.30;;;;;;;;;;4912259;29;20040;-71
2024/02/04 09:28:59;;;;;;;2.63;2.42;;;;;;;;;;4917733;29;20059;-71
2024/02/04 09:31:25;;;;;;;3.20;2.17;;;;;;;;;;4913125;29;20028;-70
2024/02/04 09:33:51;;;;;;;1.63;1.52;;;;;;;;;;4911526;29;20414;-70
2024/02/04 09:36:17;;;;;;;1.83;1.73;;;;;;;;;;4912034;29;20028;-70
2024/02/04 09:38:43;;;;;;;2.30;2.08;;;;;;;;;;4911553;29;20063;-70
2024/02/04 09:41:09;;;;;;;6.07;2.70;;;;;;;;;;4913449;29;20165;-72
2024/02/04 09:43:35;;;;;;;4.15;2.40;;;;;;;;;;4913500;29;20554;-72
2024/02/04 09:46:01;;;;;;;2.38;1.85;;;;;;;;;;4913850;29;20064;-71
2024/02/04 09:48:29;;;;;;;5.28;2.15;;;;;;;;;;4914059;29;20442;-71
2024/02/04 09:50:56;;;;;;;1.77;1.67;;;;;;;;;;4914381;29;20028;-71
2024/02/04 09:53:24;;;;;;;5.75;2.47;;;;;;;;;;4912242;29;20131;-71
2024/02/04 09:55:57;;;;;;;3.03;2.40;;;;;;;;;;4913678;29;20071;-71
2024/02/04 09:58:23;;;;;;;5.40;2.25;;;;;;;;;;4912815;29;20067;-72
2024/02/04 10:00:49;;;;;;;7.05;2.05;;;;;;;;;;4920876;29;20080;-70
2024/02/04 10:03:15;;;;;;;3.03;2.28;;;;;;;;;;4930377;29;20048;-71
2024/02/04 10:05:41;;;;;;;5.38;2.45;;;;;;;;;;4914360;29;20313;-72
2024/02/04 10:08:07;;;;;;;3.83;2.10;;;;;;;;;;4929970;29;20047;-70
2024/02/04 10:10:34;;;;;;;3.90;2.20;;;;;;;;;;4914116;29;20035;-72
2024/02/04 10:13:05;;;;;;;5.05;2.60;;;;;;;;;;4882942;29;20506;-71
2024/02/04 10:15:43;;;;;;;2.20;2.00;;;;;;;;;;4931330;29;20110;-72
2024/02/04 10:18:10;;;;;;;1.95;1.80;;;;;;;;;;4930161;29;20048;-72
2024/02/04 10:20:36;;;;;;;3.28;2.78;;;;;;;;;;4914121;29;20028;-72
2024/02/04 10:23:02;;;;;;;3.20;1.98;;;;;;;;;;4931065;29;20035;-70
2024/02/04 10:25:28;;;;;;;4.32;2.65;;;;;;;;;;4930241;29;20511;-71
2024/02/04 10:28:04;;;;;;;3.45;2.53;;;;;;;;;;4914035;29;20058;-71
2024/02/04 10:30:30;;;;;;;4.95;3.15;;;;;;;;;;4929659;29;20042;-71
2024/02/04 10:32:56;;;;;;;3.40;2.20;;;;;;;;;;4912418;29;20503;-71
2024/02/04 10:35:24;;;;;;;4.28;2.65;;;;;;;;;;4924217;29;20028;-72
2024/02/04 10:37:50;;;;;;;6.55;2.50;;;;;;;;;;4926833;29;20051;-70
2024/02/04 10:40:16;;;;;;;8.70;2.83;;;;;;;;;;4912490;29;20040;-69
2024/02/04 10:42:43;;;;;;;6.70;2.72;;;;;;;;;;4923424;29;20046;-69
2024/02/04 10:45:12;;;;;;;7.25;2.72;;;;;;;;;;4928353;29;20034;-71
2024/02/04 10:47:38;;;;;;;5.40;2.35;;;;;;;;;;4942761;29;20055;-70
2024/02/04 10:50:04;;;;;;;3.83;2.47;;;;;;;;;;4926034;29;20092;-70
2024/02/04 10:52:35;;;;;;;4.53;2.45;;;;;;;;;;4931139;29;20032;-69
2024/02/04 10:55:01;;;;;;;5.47;2.38;;;;;;;;;;4930961;29;20043;-71
2024/02/04 10:57:27;;;;;;;8.20;2.40;;;;;;;;;;4915882;29;20557;-71
2024/02/04 10:59:54;;;;;;;9.93;3.95;;;;;;;;;;4923920;29;20027;-70
2024/02/04 11:02:19;;;;;;;4.80;2.50;;;;;;;;;;4924780;29;20043;-71
2024/02/04 11:04:45;;;;;;;4.85;3.42;;;;;;;;;;4923681;29;20151;-72
2024/02/04 11:07:14;;;;;;;7.53;2.60;;;;;;;;;;4926290;29;20040;-71
2024/02/04 11:09:39;;;;;;;4.55;2.30;;;;;;;;;;4920491;29;20566;-70
2024/02/04 11:12:07;;;;;;;6.22;2.00;;;;;;;;;;4919110;29;20040;-70
2024/02/04 11:14:33;;;;;;;6.10;2.13;;;;;;;;;;4921059;29;20032;-72
2024/02/04 11:17:08;;;;;;;5.45;2.45;;;;;;;;;;4919744;29;20055;-71
2024/02/04 11:19:40;;;;;;;4.38;1.95;;;;;;;;;;4908071;29;20067;-70
2024/02/04 11:22:12;;;;;;;2.22;2.03;;;;;;;;;;4928330;29;20024;-69
2024/02/04 11:24:38;;;;;;;3.50;2.03;;;;;;;;;;4923521;29;20048;-69
2024/02/04 11:27:04;;;;;;;4.30;2.22;;;;;;;;;;4923650;29;20054;-69
2024/02/04 11:29:29;;;;;;;3.50;2.25;;;;;;;;;;4925182;29;20036;-68
2024/02/04 11:31:56;;;;;;;4.18;2.17;;;;;;;;;;4927987;29;20451;-68
2024/02/04 11:34:22;;;;;;;2.83;2.58;;;;;;;;;;4923825;29;20035;-69
2024/02/04 11:36:48;;;;;;;2.00;1.75;;;;;;;;;;4919372;29;20032;-70
2024/02/04 11:39:21;;;;;;;1.85;1.50;;;;;;;;;;4925212;29;20474;-69
2024/02/04 11:41:47;;;;;;;2.45;1.70;;;;;;;;;;4925629;29;20036;-69
2024/02/04 11:44:13;;;;;;;6.43;2.28;;;;;;;;;;4946377;29;20028;-70
2024/02/04 11:46:38;;;;;;;5.53;2.42;;;;;;;;;;4927187;29;20640;-70
2024/02/04 11:49:13;;;;;;;1.85;1.75;;;;;;;;;;4924674;29;20040;-71
2024/02/04 11:51:41;;;;;;;2.00;1.90;;;;;;;;;;4925247;29;20095;-71
2024/02/04 11:54:07;;;;;;;3.17;2.10;;;;;;;;;;4931430;29;20483;-71
2024/02/04 11:56:33;;;;;;;1.50;1.45;;;;;;;;;;4918855;29;20127;-71
2024/02/04 11:58:59;;;;;;;3.10;2.10;;;;;;;;;;4932222;29;20054;-70
2024/02/04 12:01:25;;;;;;;2.67;1.92;;;;;;;;;;4932287;29;20036;-71
2024/02/04 12:03:51;;;;;;;1.60;1.50;;;;;;;;;;4933062;29;20086;-71
2024/02/04 12:06:19;;;;;;;2.85;1.50;;;;;;;;;;4932127;29;20032;-70
2024/02/04 12:08:45;;;;;;;2.33;1.35;;;;;;;;;;4922407;29;20043;-71
2024/02/04 12:11:11;;;;;;;1.70;1.58;;;;;;;;;;4929922;29;20035;-70
2024/02/04 12:13:38;;;;;;;1.38;1.30;;;;;;;;;;4930418;29;20502;-71
2024/02/04 12:16:07;;;;;;;2.08;1.60;;;;;;;;;;4932775;29;20063;-71
2024/02/04 12:18:34;;;;;;;9.38;2.38;;;;;;;;;;4932867;28;20609;-71
2024/02/04 12:21:00;;;;;;;1.65;1.55;;;;;;;;;;4932554;29;20050;-69
2024/02/04 12:23:28;;;;;;;1.98;1.73;;;;;;;;;;4933197;29;20040;-69
2024/02/04 12:25:54;;;;;;;2.60;1.80;;;;;;;;;;4931604;29;20383;-71
2024/02/04 12:28:20;;;;;;;1.58;1.55;;;;;;;;;;4929832;29;20395;-70
2024/02/04 12:30:57;;;;;;;1.27;1.27;;;;;;;;;;4930277;29;20085;-70
2024/02/04 12:33:23;;;;;;;1.83;1.70;;;;;;;;;;4926408;29;20039;-72
2024/02/04 12:35:50;;;;;;;2.97;2.00;;;;;;;;;;4926630;29;21286;-72
2024/02/04 12:38:17;;;;;;;2.85;1.70;;;;;;;;;;4928439;29;20059;-71
2024/02/04 12:40:43;;;;;;;2.58;1.73;;;;;;;;;;4930941;29;20051;-70
2024/02/04 12:43:10;;;;;;;1.45;1.35;;;;;;;;;;4943427;29;20722;-70
2024/02/04 12:45:36;;;;;;;1.13;1.13;;;;;;;;;;4934270;29;20036;-70
2024/02/04 12:48:02;;;;;;;1.58;1.48;;;;;;;;;;4929123;29;20058;-69
2024/02/04 12:50:28;;;;;;;1.45;1.35;;;;;;;;;;4921959;29;20047;-69
2024/02/04 12:53:07;;;;;;;1.33;1.30;;;;;;;;;;4929444;29;20192;-69
2024/02/04 12:55:36;;;;;;;1.90;1.30;;;;;;;;;;4923731;29;20103;-70
2024/02/04 12:58:03;;;;;;;1.90;1.38;;;;;;;;;;4926511;29;20023;-70
2024/02/04 13:00:30;;;;;;;1.63;1.50;;;;;;;;;;4928763;29;20044;-70
2024/02/04 13:02:59;;;;;;;1.30;1.30;;;;;;;;;;4924666;29;20992;-70
2024/02/04 13:05:25;;;;;;;1.55;1.45;;;;;;;;;;4925280;29;20630;-70
2024/02/04 13:07:52;;;;;;;4.80;1.83;;;;;;;;;;4923692;29;20133;-70
2024/02/04 13:10:18;;;;;;;3.15;1.38;;;;;;;;;;4916498;29;20028;-70
2024/02/04 13:12:44;;;;;;;1.95;1.80;;;;;;;;;;4912417;29;20050;-69
2024/02/04 13:15:10;;;;;;;1.25;1.25;;;;;;;;;;4924034;29;20027;-69
2024/02/04 13:20:20;;;;;;;2.50;1.20;;;;;;;;;;4925266;29;20075;-69
2024/02/04 13:22:46;;;;;;;2.83;1.80;;;;;;;;;;4923862;29;20035;-71
2024/02/04 13:25:12;;;;;;;4.28;1.58;;;;;;;;;;4923930;29;20081;-70
2024/02/04 13:27:38;;;;;;;1.40;1.40;;;;;;;;;;4930081;29;20088;-70
2024/02/04 13:30:05;;;;;;;1.45;1.45;;;;;;;;;;4931843;29;20110;-70
2024/02/04 13:32:50;;;;;;;1.40;1.33;;;;;;;;;;4943271;29;20039;-71
2024/02/04 13:35:16;;;;;;;1.50;1.30;;;;;;;;;;4914136;29;20505;-71
2024/02/04 13:37:46;;;;;;;2.40;1.98;;;;;;;;;;4946099;29;20044;-73
2024/02/04 13:40:15;;;;;;;1.73;1.63;;;;;;;;;;4929312;29;20063;-70
2024/02/04 13:42:41;;;;;;;2.28;1.67;;;;;;;;;;4927014;29;20924;-71
2024/02/04 13:45:08;;;;;;;2.63;1.70;;;;;;;;;;4930305;29;20039;-71
2024/02/04 13:47:37;;;;;;;1.73;1.63;;;;;;;;;;4929565;29;20047;-69
2024/02/04 13:50:03;;;;;;;2.00;1.83;;;;;;;;;;4930754;29;20043;-68
2024/02/04 13:52:30;;;;;;;3.67;2.25;;;;;;;;;;4930451;29;20035;-69
2024/02/04 13:54:56;;;;;;;2.25;1.88;;;;;;;;;;4929413;29;20032;-71
2024/02/04 13:57:22;;;;;;;1.80;1.70;;;;;;;;;;4911948;29;20035;-70
2024/02/04 13:59:49;;;;;;;1.80;1.70;;;;;;;;;;4924218;29;20067;-70
2024/02/04 14:02:15;;;;;;;1.98;1.80;;;;;;;;;;4920528;29;20119;-70
2024/02/04 14:04:44;;;;;;;2.47;1.60;;;;;;;;;;4906276;29;20133;-71
2024/02/04 14:07:10;;;;;;;2.28;1.58;;;;;;;;;;4923950;29;20536;-71
2024/02/04 14:09:36;;;;;;;1.73;1.52;;;;;;;;;;4924304;29;20783;-71
2024/02/04 14:12:03;;;;;;;1.30;1.30;;;;;;;;;;4922939;29;20074;-69
2024/02/04 14:14:30;;;;;;;2.33;2.13;;;;;;;;;;4920519;29;20171;-71
2024/02/04 14:16:56;;;;;;;1.45;1.42;;;;;;;;;;4895445;29;20044;-71
2024/02/04 14:19:21;;;;;;;2.95;1.35;;;;;;;;;;4921782;29;20388;-71
2024/02/04 14:21:47;;;;;;;1.45;1.42;;;;;;;;;;4920490;29;20028;-70
2024/02/04 14:24:13;;;;;;;1.45;1.35;;;;;;;;;;4920013;29;20036;-70
2024/02/04 14:26:40;;;;;;;1.90;1.80;;;;;;;;;;4922390;29;20530;-70
2024/02/04 14:29:07;;;;;;;4.90;2.22;;;;;;;;;;4920740;29;20032;-71
2024/02/04 14:31:33;;;;;;;4.30;1.65;;;;;;;;;;4923622;29;20122;-70
2024/02/04 14:33:59;;;;;;;1.50;1.33;;;;;;;;;;4919993;29;20174;-73
2024/02/04 14:36:25;;;;;;;1.52;1.40;;;;;;;;;;4927071;29;20194;-72
2024/02/04 14:38:51;;;;;;;1.92;1.40;;;;;;;;;;4929141;29;20039;-72
2024/02/04 14:41:20;;;;;;;1.73;1.60;;;;;;;;;;4925351;29;20032;-71
2024/02/04 14:43:46;;;;;;;2.42;2.10;;;;;;;;;;4928343;29;20191;-71
2024/02/04 14:46:12;;;;;;;1.63;1.52;;;;;;;;;;4930842;29;20043;-72
2024/02/04 14:48:38;;;;;;;2.30;2.10;;;;;;;;;;4930844;29;20059;-72
2024/02/04 14:51:04;;;;;;;1.58;1.35;;;;;;;;;;4930494;29;20035;-71
2024/02/04 14:53:30;;;;;;;4.13;2.05;;;;;;;;;;4926015;29;20035;-70